createdAt,value
2023-01-29T00:01:10.789Z,1.60
2023-01-29T00:06:16.130Z,1.70
2023-01-29T00:08:43.309Z,1.87
2023-01-29T00:11:10.913Z,2.05
2023-01-29T00:13:38.044Z,1.70
2023-01-29T00:16:05.486Z,1.67
2023-01-29T00:18:32.658Z,1.52
2023-01-29T00:21:00.414Z,2.05
2023-01-29T00:25:55.021Z,2.15
2023-01-29T00:28:25.680Z,1.67
2023-01-29T00:30:52.760Z,2.05
2023-01-29T00:33:20.301Z,1.38
2023-01-29T00:35:47.809Z,1.95
2023-01-29T00:38:15.973Z,1.10
2023-01-29T00:41:01.825Z,1.75
2023-01-29T00:43:47.518Z,1.45
2023-01-29T00:46:39.894Z,1.63
2023-01-29T00:49:08.880Z,1.27
2023-01-29T00:51:38.514Z,1.40
2023-01-29T00:54:07.031Z,1.42
2023-01-29T00:56:37.062Z,1.30
2023-01-29T00:59:04.980Z,1.58
2023-01-29T01:01:51.045Z,1.90
2023-01-29T01:04:19.005Z,1.58
2023-01-29T01:06:46.137Z,1.40
2023-01-29T01:09:32.056Z,1.52
2023-01-29T01:11:59.736Z,1.20
2023-01-29T01:14:26.908Z,1.20
2023-01-29T01:16:54.048Z,1.45
2023-01-29T01:19:21.176Z,1.05
2023-01-29T01:21:48.435Z,1.65
2023-01-29T01:24:15.827Z,1.40
2023-01-29T01:26:44.340Z,1.10
2023-01-29T01:29:11.583Z,1.05
2023-01-29T01:31:42.675Z,1.65
2023-01-29T01:34:09.853Z,1.40
2023-01-29T01:39:36.504Z,2.25
2023-01-29T01:42:04.166Z,1.60
2023-01-29T01:45:04.897Z,1.60
2023-01-29T01:47:49.245Z,1.50
2023-01-29T01:50:27.147Z,1.15
2023-01-29T01:53:19.407Z,1.35
2023-01-29T01:56:00.328Z,1.15
2023-01-29T01:58:38.951Z,1.10
2023-01-29T02:01:09.472Z,1.50
2023-01-29T02:04:22.127Z,1.05
2023-01-29T02:09:51.612Z,1.10
2023-01-29T02:12:21.521Z,1.63
2023-01-29T02:14:52.314Z,1.40
2023-01-29T02:18:38.541Z,1.70
2023-01-29T02:25:10.617Z,0.82
2023-01-29T02:27:49.769Z,1.33
2023-01-29T02:30:33.470Z,1.08
2023-01-29T02:33:21.565Z,1.40
2023-01-29T02:36:57.732Z,1.42
2023-01-29T02:39:36.627Z,1.13
2023-01-29T02:42:23.717Z,1.33
2023-01-29T02:47:52.019Z,1.35
2023-01-29T02:50:35.290Z,1.92
2023-01-29T02:53:16.197Z,1.00
2023-01-29T02:55:46.150Z,1.60
2023-01-29T02:59:01.747Z,2.05
2023-01-29T03:02:13.922Z,1.05
2023-01-29T03:04:51.662Z,1.40
2023-01-29T03:07:46.572Z,1.00
2023-01-29T03:10:22.167Z,1.50
2023-01-29T03:13:03.011Z,1.10
2023-01-29T03:15:42.571Z,1.80
2023-01-29T03:18:17.656Z,1.38
2023-01-29T03:20:53.046Z,1.60
2023-01-29T03:23:50.766Z,1.35
2023-01-29T03:26:40.771Z,1.45
2023-01-29T03:29:29.631Z,1.42
2023-01-29T03:32:07.812Z,1.48
2023-01-29T03:34:47.112Z,1.65
2023-01-29T03:37:35.046Z,0.80
2023-01-29T03:40:07.842Z,1.27
2023-01-29T03:42:46.564Z,1.60
2023-01-29T03:46:01.836Z,1.17
2023-01-29T03:48:58.091Z,1.20
2023-01-29T03:51:47.436Z,1.45
2023-01-29T03:54:30.857Z,1.20
2023-01-29T03:57:16.221Z,1.63
2023-01-29T03:59:49.570Z,1.73
2023-01-29T04:02:30.165Z,1.70
2023-01-29T04:05:09.839Z,1.20
2023-01-29T04:07:40.238Z,1.75
2023-01-29T04:10:16.100Z,1.35
2023-01-29T04:12:51.545Z,1.70
2023-01-29T04:15:22.532Z,1.30
2023-01-29T04:17:53.357Z,1.95
2023-01-29T04:20:21.746Z,1.52
2023-01-29T04:22:55.531Z,1.17
2023-01-29T04:25:44.933Z,1.30
2023-01-29T04:28:28.671Z,1.20
2023-01-29T04:31:03.896Z,1.20
2023-01-29T04:34:07.148Z,1.73
2023-01-29T04:37:03.055Z,1.17
2023-01-29T04:39:52.766Z,1.33
2023-01-29T04:42:41.899Z,1.38
2023-01-29T04:45:25.627Z,1.35
2023-01-29T04:48:11.120Z,1.40
2023-01-29T04:50:56.535Z,2.20
2023-01-29T04:54:09.191Z,2.17
2023-01-29T04:57:16.800Z,1.55
2023-01-29T04:59:58.370Z,1.42
2023-01-29T05:02:28.489Z,1.33
2023-01-29T05:04:59.005Z,1.65
2023-01-29T05:07:31.449Z,1.13
2023-01-29T05:09:59.697Z,1.35
2023-01-29T05:12:49.797Z,1.38
2023-01-29T05:15:25.981Z,0.90
2023-01-29T05:17:54.215Z,1.40
2023-01-29T05:20:21.945Z,1.40
2023-01-29T05:22:49.982Z,1.75
2023-01-29T05:25:31.224Z,1.25
2023-01-29T05:28:12.064Z,1.98
2023-01-29T05:30:40.845Z,1.60
2023-01-29T05:33:24.164Z,1.35
2023-01-29T05:35:52.122Z,1.50
2023-01-29T05:40:48.512Z,1.70
2023-01-29T05:43:18.849Z,0.98
2023-01-29T05:46:00.510Z,1.50
2023-01-29T05:48:29.975Z,1.95
2023-01-29T05:51:05.019Z,1.55
2023-01-29T05:53:33.863Z,1.85
2023-01-29T05:56:05.492Z,1.02
2023-01-29T05:58:39.716Z,1.83
2023-01-29T06:01:18.789Z,1.25
2023-01-29T06:03:47.017Z,1.30
2023-01-29T06:06:15.702Z,1.98
2023-01-29T06:08:43.706Z,2.35
2023-01-29T06:13:41.025Z,1.40
2023-01-29T06:16:10.146Z,1.73
2023-01-29T06:18:38.196Z,1.65
2023-01-29T06:23:50.523Z,1.48
2023-01-29T06:26:17.644Z,1.73
2023-01-29T06:28:46.137Z,1.33
2023-01-29T06:31:35.194Z,1.45
2023-01-29T06:36:27.895Z,1.58
2023-01-29T06:39:01.611Z,1.70
2023-01-29T06:41:29.332Z,2.33
2023-01-29T06:43:56.597Z,1.98
2023-01-29T06:46:24.380Z,1.60
2023-01-29T06:48:52.866Z,1.38
2023-01-29T06:51:21.512Z,2.28
2023-01-29T06:53:49.621Z,2.58
2023-01-29T06:56:16.867Z,1.83
2023-01-29T06:58:44.115Z,1.88
2023-01-29T07:01:25.368Z,2.25
2023-01-29T07:04:00.591Z,2.38
2023-01-29T07:06:40.890Z,2.35
2023-01-29T07:09:14.572Z,2.47
2023-01-29T07:11:42.321Z,1.85
2023-01-29T07:14:09.865Z,1.58
2023-01-29T07:16:41.312Z,1.80
2023-01-29T07:19:08.507Z,2.13
2023-01-29T07:21:35.676Z,1.42
2023-01-29T07:24:03.708Z,2.03
2023-01-29T07:26:31.147Z,1.83
2023-01-29T07:28:59.017Z,2.10
2023-01-29T07:33:53.896Z,1.73
2023-01-29T07:36:21.309Z,1.90
2023-01-29T07:38:52.979Z,2.15
2023-01-29T07:41:20.354Z,1.73
2023-01-29T07:43:48.388Z,2.15
2023-01-29T07:46:15.871Z,2.08
2023-01-29T07:48:43.294Z,1.15
2023-01-29T07:51:10.795Z,1.63
2023-01-29T07:53:39.336Z,2.08
2023-01-29T07:56:06.929Z,2.50
2023-01-29T07:58:45.461Z,1.88
2023-01-29T08:01:12.871Z,1.98
2023-01-29T08:03:40.168Z,1.90
2023-01-29T08:06:08.470Z,1.83
2023-01-29T08:08:36.337Z,1.33
2023-01-29T08:11:05.829Z,1.83
2023-01-29T08:13:33.508Z,1.73
2023-01-29T08:16:03.066Z,2.17
2023-01-29T08:18:31.904Z,1.73
2023-01-29T08:21:02.693Z,1.58
2023-01-29T08:23:30.549Z,1.80
2023-01-29T08:25:57.974Z,2.20
2023-01-29T08:28:25.334Z,1.80
2023-01-29T08:30:53.148Z,2.03
2023-01-29T08:36:01.667Z,2.22
2023-01-29T08:39:06.255Z,2.25
2023-01-29T08:41:33.826Z,2.03
2023-01-29T08:44:02.565Z,2.40
2023-01-29T08:46:29.786Z,1.90
2023-01-29T08:49:04.822Z,1.80
2023-01-29T08:51:32.471Z,1.60
2023-01-29T08:53:59.920Z,1.65
2023-01-29T08:56:28.900Z,2.20
2023-01-29T08:58:57.300Z,1.75
2023-01-29T09:01:25.507Z,1.55
2023-01-29T09:03:53.195Z,1.60
2023-01-29T09:08:50.919Z,1.60
2023-01-29T09:11:18.229Z,1.33
2023-01-29T09:13:45.427Z,1.70
2023-01-29T09:16:12.757Z,2.20
2023-01-29T09:19:02.145Z,1.60
2023-01-29T09:21:57.552Z,1.85
2023-01-29T09:24:25.797Z,2.17
2023-01-29T09:26:53.051Z,2.15
2023-01-29T09:29:20.257Z,2.53
2023-01-29T09:31:47.559Z,2.40
2023-01-29T09:34:14.804Z,1.70
2023-01-29T09:36:48.212Z,1.75
2023-01-29T09:39:20.252Z,1.52
2023-01-29T09:41:58.712Z,2.17
2023-01-29T09:44:57.029Z,2.30
2023-01-29T09:47:27.836Z,1.70
2023-01-29T09:50:20.204Z,2.28
2023-01-29T09:53:21.074Z,2.28
2023-01-29T09:56:02.841Z,2.13
2023-01-29T09:58:44.414Z,2.35
2023-01-29T10:01:50.735Z,2.40
2023-01-29T10:04:31.821Z,1.70
2023-01-29T10:07:47.125Z,1.75
2023-01-29T10:10:46.427Z,1.88
2023-01-29T10:13:42.009Z,2.17
2023-01-29T10:16:50.121Z,1.95
2023-01-29T10:19:47.289Z,3.13
2023-01-29T10:22:34.365Z,3.47
2023-01-29T10:25:05.976Z,1.95
2023-01-29T10:27:42.030Z,2.78
2023-01-29T10:31:15.113Z,2.53
2023-01-29T10:34:02.046Z,2.20
2023-01-29T10:36:46.508Z,4.43
2023-01-29T10:39:21.490Z,2.97
2023-01-29T10:42:06.579Z,2.60
2023-01-29T10:45:08.634Z,3.10
2023-01-29T10:48:13.145Z,3.00
2023-01-29T10:50:58.387Z,2.00
2023-01-29T10:53:44.078Z,2.67
2023-01-29T10:56:32.789Z,2.80
2023-01-29T10:59:18.539Z,2.70
2023-01-29T11:01:47.883Z,2.45
2023-01-29T11:04:16.285Z,2.10
2023-01-29T11:06:44.571Z,3.13
2023-01-29T11:09:43.453Z,4.20
2023-01-29T11:15:22.264Z,2.47
2023-01-29T11:18:15.748Z,2.90
2023-01-29T11:21:36.387Z,2.95
2023-01-29T11:24:17.686Z,2.33
2023-01-29T11:26:49.901Z,3.65
2023-01-29T11:29:46.225Z,3.92
2023-01-29T11:32:30.329Z,3.28
2023-01-29T11:35:28.651Z,3.55
2023-01-29T11:38:22.001Z,3.90
2023-01-29T11:41:22.797Z,3.33
2023-01-29T11:43:50.509Z,2.35
2023-01-29T11:54:45.629Z,2.95
2023-01-29T11:57:38.947Z,3.83
2023-01-29T12:00:36.328Z,2.95
2023-01-29T12:03:53.324Z,2.20
2023-01-29T12:06:47.906Z,2.78
2023-01-29T12:09:28.035Z,2.85
2023-01-29T12:11:56.066Z,2.55
2023-01-29T12:14:34.449Z,2.53
2023-01-29T12:17:26.833Z,2.10
2023-01-29T12:20:05.137Z,2.75
2023-01-29T12:22:59.799Z,3.20
2023-01-29T12:26:09.084Z,3.30
2023-01-29T12:28:57.183Z,2.60
2023-01-29T12:32:05.607Z,3.30
2023-01-29T12:35:16.379Z,2.72
2023-01-29T12:42:08.459Z,2.47
2023-01-29T12:44:57.775Z,3.25
2023-01-29T12:47:54.252Z,2.70
2023-01-29T12:50:29.393Z,3.63
2023-01-29T12:53:09.142Z,3.13
2023-01-29T12:58:58.810Z,2.20
2023-01-29T13:01:54.876Z,3.47
2023-01-29T13:04:56.382Z,3.10
2023-01-29T13:07:47.664Z,4.35
2023-01-29T13:10:24.396Z,3.95
2023-01-29T13:13:28.699Z,3.00
2023-01-29T13:15:57.674Z,4.03
2023-01-29T13:18:52.475Z,4.15
2023-01-29T13:21:31.096Z,3.30
2023-01-29T13:24:11.022Z,4.65
2023-01-29T13:26:40.754Z,4.07
2023-01-29T13:29:32.307Z,4.65
2023-01-29T13:32:05.997Z,3.25
2023-01-29T13:34:43.342Z,7.22
2023-01-29T13:37:32.277Z,3.78
2023-01-29T13:40:04.011Z,3.33
2023-01-29T13:42:47.308Z,3.63
2023-01-29T13:46:09.557Z,4.22
2023-01-29T13:48:50.831Z,2.55
2023-01-29T13:51:28.477Z,4.30
2023-01-29T13:54:03.387Z,4.35
2023-01-29T13:56:34.556Z,4.20
2023-01-29T13:59:05.856Z,3.63
2023-01-29T14:01:48.411Z,2.70
2023-01-29T14:04:32.775Z,2.80
2023-01-29T14:07:43.715Z,3.17
2023-01-29T14:11:11.655Z,3.10
2023-01-29T14:13:42.087Z,3.10
2023-01-29T14:16:12.342Z,5.20
2023-01-29T14:19:01.962Z,3.90
2023-01-29T14:21:34.103Z,4.00
2023-01-29T14:24:24.962Z,3.83
2023-01-29T14:26:56.310Z,2.67
2023-01-29T14:29:35.394Z,3.92
2023-01-29T14:32:22.238Z,3.28
2023-01-29T14:34:55.783Z,3.47
2023-01-29T14:37:36.501Z,6.45
2023-01-29T14:40:32.572Z,4.05
2023-01-29T14:43:21.061Z,3.88
2023-01-29T14:45:50.004Z,5.30
2023-01-29T14:48:38.062Z,3.92
2023-01-29T14:51:18.178Z,5.00
2023-01-29T14:54:41.638Z,4.47
2023-01-29T14:57:17.203Z,4.55
2023-01-29T14:59:59.058Z,5.65
2023-01-29T15:02:37.268Z,6.88
2023-01-29T15:05:14.339Z,5.72
2023-01-29T15:08:30.233Z,5.25
2023-01-29T15:11:21.699Z,3.25
2023-01-29T15:14:06.640Z,3.50
2023-01-29T15:17:08.301Z,3.15
2023-01-29T15:19:45.987Z,3.40
2023-01-29T15:22:19.035Z,4.53
2023-01-29T15:25:02.028Z,3.58
2023-01-29T15:27:31.280Z,4.13
2023-01-29T15:30:02.554Z,4.00
2023-01-29T15:32:41.054Z,4.60
2023-01-29T15:35:26.986Z,4.57
2023-01-29T15:38:27.018Z,5.30
2023-01-29T15:41:20.236Z,4.90
2023-01-29T15:43:56.743Z,6.18
2023-01-29T15:46:35.020Z,6.88
2023-01-29T15:49:10.126Z,7.65
2023-01-29T15:51:39.423Z,7.57
2023-01-29T15:54:15.683Z,10.02
2023-01-29T15:56:53.103Z,9.13
2023-01-29T15:59:26.644Z,7.93
2023-01-29T16:01:58.324Z,7.15
2023-01-29T16:04:31.161Z,6.18
2023-01-29T16:07:02.243Z,5.68
2023-01-29T16:09:30.037Z,6.65
2023-01-29T16:12:00.151Z,5.93
2023-01-29T16:14:28.732Z,4.75
2023-01-29T16:16:56.092Z,3.88
2023-01-29T16:19:29.679Z,4.63
2023-01-29T16:22:07.164Z,4.88
2023-01-29T16:24:38.914Z,4.72
2023-01-29T16:27:15.125Z,2.42
2023-01-29T16:29:42.349Z,4.18
2023-01-29T16:32:12.481Z,3.65
2023-01-29T16:34:48.352Z,4.00
2023-01-29T16:37:31.950Z,3.97
2023-01-29T16:39:59.591Z,2.22
2023-01-29T16:45:01.071Z,3.42
2023-01-29T16:47:41.269Z,2.33
2023-01-29T16:50:46.233Z,3.00
2023-01-29T16:53:24.677Z,1.00
2023-01-29T16:55:53.242Z,4.47
2023-01-29T16:58:28.439Z,2.90
2023-01-29T17:01:08.383Z,3.25
2023-01-29T17:03:38.716Z,3.20
2023-01-29T17:06:18.992Z,4.72
2023-01-29T17:08:47.819Z,2.55
2023-01-29T17:11:37.943Z,3.13
2023-01-29T17:18:25.459Z,5.18
2023-01-29T17:20:54.153Z,3.60
2023-01-29T17:23:23.863Z,4.43
2023-01-29T17:28:55.975Z,2.58
2023-01-29T17:31:23.403Z,8.85
2023-01-29T17:34:16.974Z,3.03
2023-01-29T17:36:45.357Z,3.10
2023-01-29T17:39:25.847Z,3.97
2023-01-29T17:41:58.964Z,3.08
2023-01-29T17:44:26.845Z,3.67
2023-01-29T17:49:28.529Z,3.53
2023-01-29T17:51:57.500Z,4.05
2023-01-29T17:54:26.020Z,4.18
2023-01-29T17:56:54.411Z,3.47
2023-01-29T17:59:25.377Z,5.00
2023-01-29T18:01:53.788Z,4.55
2023-01-29T18:04:21.380Z,4.20
2023-01-29T18:06:51.884Z,7.03
2023-01-29T18:09:22.918Z,7.90
2023-01-29T18:11:51.431Z,6.15
2023-01-29T18:14:18.928Z,6.40
2023-01-29T18:16:46.381Z,3.40
2023-01-29T18:19:27.415Z,5.93
2023-01-29T18:21:54.865Z,6.47
2023-01-29T18:24:22.923Z,8.07
2023-01-29T18:26:51.485Z,8.95
2023-01-29T18:29:22.263Z,7.50
2023-01-29T18:31:49.973Z,9.45
2023-01-29T18:38:27.778Z,15.32
2023-01-29T18:41:03.235Z,15.82
2023-01-29T18:43:30.672Z,17.35
2023-01-29T18:45:59.505Z,18.83
2023-01-29T18:48:26.921Z,14.63
2023-01-29T18:50:54.364Z,13.73
2023-01-29T18:53:21.776Z,12.35
2023-01-29T18:56:05.044Z,12.55
2023-01-29T18:58:36.940Z,11.80
2023-01-29T19:01:11.793Z,12.43
2023-01-29T19:03:42.683Z,11.90
2023-01-29T19:06:12.148Z,12.65
2023-01-29T19:08:41.380Z,12.48
2023-01-29T19:11:09.142Z,11.32
2023-01-29T19:16:12.229Z,9.93
2023-01-29T19:18:40.006Z,10.20
2023-01-29T19:21:11.338Z,8.85
2023-01-29T19:23:50.916Z,5.85
2023-01-29T19:26:18.096Z,5.68
2023-01-29T19:29:01.709Z,3.58
2023-01-29T19:31:41.284Z,6.32
2023-01-29T19:34:09.362Z,6.30
2023-01-29T19:36:37.665Z,4.85
2023-01-29T19:39:05.881Z,3.53
2023-01-29T19:41:33.211Z,4.57
2023-01-29T19:44:00.877Z,3.20
2023-01-29T19:46:30.410Z,1.77
2023-01-29T19:48:58.860Z,3.50
2023-01-29T19:51:28.927Z,3.08
2023-01-29T19:53:56.712Z,3.72
2023-01-29T19:56:24.056Z,4.28
2023-01-29T19:58:57.400Z,4.18
2023-01-29T20:01:25.229Z,4.15
2023-01-29T20:03:52.825Z,5.40
2023-01-29T20:06:25.299Z,3.90
2023-01-29T20:08:58.602Z,3.97
2023-01-29T20:11:25.934Z,5.90
2023-01-29T20:13:54.525Z,5.68
2023-01-29T20:16:22.396Z,13.55
2023-01-29T20:18:50.239Z,4.93
2023-01-29T20:21:20.862Z,10.90
2023-01-29T20:23:50.835Z,5.05
2023-01-29T20:26:19.425Z,8.18
2023-01-29T20:28:48.263Z,7.38
2023-01-29T20:31:17.076Z,14.15
2023-01-29T20:33:49.969Z,27.88
2023-01-29T20:36:17.196Z,28.38
2023-01-29T20:38:44.964Z,13.88
2023-01-29T20:41:19.927Z,8.25
2023-01-29T20:43:58.473Z,5.40
2023-01-29T20:46:27.323Z,8.40
2023-01-29T20:48:55.923Z,2.75
2023-01-29T20:51:23.659Z,2.92
2023-01-29T20:53:50.891Z,3.58
2023-01-29T20:56:18.487Z,2.97
2023-01-29T20:58:59.357Z,2.15
2023-01-29T21:01:26.589Z,2.30
2023-01-29T21:03:53.838Z,2.30
2023-01-29T21:10:21.411Z,2.20
2023-01-29T21:12:49.243Z,2.55
2023-01-29T21:15:16.544Z,2.78
2023-01-29T21:17:43.730Z,2.45
2023-01-29T21:20:11.879Z,7.82
2023-01-29T21:22:43.945Z,6.28
2023-01-29T21:25:12.077Z,4.53
2023-01-29T21:27:39.315Z,7.68
2023-01-29T21:31:08.421Z,7.13
2023-01-29T21:33:36.454Z,6.57
2023-01-29T21:36:13.294Z,5.68
2023-01-29T21:43:12.851Z,6.32
2023-01-29T21:45:41.496Z,8.25
2023-01-29T21:48:11.777Z,8.15
2023-01-29T21:50:39.515Z,11.07
2023-01-29T21:53:06.827Z,9.57
2023-01-29T21:56:03.479Z,9.25
2023-01-29T21:58:31.326Z,8.57
2023-01-29T22:01:36.603Z,8.18
2023-01-29T22:04:00.205Z,10.25
2023-01-29T22:10:42.257Z,6.88
2023-01-29T22:13:09.422Z,6.70
2023-01-29T22:15:36.679Z,5.25
2023-01-29T22:18:04.081Z,6.30
2023-01-29T22:20:31.595Z,7.38
2023-01-29T22:23:00.763Z,6.55
2023-01-29T22:25:28.529Z,5.80
2023-01-29T22:27:55.797Z,3.83
2023-01-29T22:30:23.535Z,2.72
2023-01-29T22:32:51.134Z,2.92
2023-01-29T22:35:18.479Z,2.75
2023-01-29T22:37:45.657Z,2.97
2023-01-29T22:40:14.161Z,2.38
2023-01-29T22:43:03.411Z,2.40
2023-01-29T22:45:31.155Z,3.75
2023-01-29T22:47:58.351Z,3.13
2023-01-29T22:50:25.433Z,4.15
2023-01-29T22:53:48.883Z,3.30
2023-01-29T22:56:16.989Z,3.00
2023-01-29T22:58:44.559Z,4.18
2023-01-29T23:01:11.891Z,2.42
2023-01-29T23:03:39.013Z,2.13
2023-01-29T23:06:06.224Z,3.35
2023-01-29T23:08:33.865Z,3.45
2023-01-29T23:12:49.011Z,2.50
2023-01-29T23:15:16.247Z,3.40
2023-01-29T23:18:55.573Z,3.40
2023-01-29T23:21:25.266Z,3.63
2023-01-29T23:23:55.516Z,3.33
2023-01-29T23:26:41.330Z,1.85
2023-01-29T23:29:08.632Z,3.42
2023-01-29T23:31:35.990Z,2.30
2023-01-29T23:34:03.326Z,2.83
2023-01-29T23:36:30.735Z,2.95
2023-01-29T23:38:57.972Z,2.47
2023-01-29T23:41:25.135Z,3.05
2023-01-29T23:43:53.263Z,2.35
2023-01-29T23:46:20.554Z,2.15
2023-01-29T23:48:47.920Z,3.85
2023-01-29T23:51:15.152Z,1.60
2023-01-29T23:53:42.518Z,1.58
2023-01-29T23:56:11.137Z,1.63
2023-01-29T23:58:38.525Z,2.15
